createdAt,value
2023-03-17T00:01:18.517Z,41.80
2023-03-17T00:05:18.504Z,42.55
2023-03-17T00:09:18.432Z,42.90
2023-03-17T00:13:18.447Z,42.82
2023-03-17T00:17:18.606Z,42.59
2023-03-17T00:21:18.954Z,41.93
2023-03-17T00:25:18.806Z,41.88
2023-03-17T00:29:19.004Z,41.45
2023-03-17T00:33:18.999Z,41.60
2023-03-17T00:37:19.111Z,41.77
2023-03-17T00:41:19.241Z,41.31
2023-03-17T00:45:19.431Z,41.37
2023-03-17T00:49:19.397Z,41.22
2023-03-17T00:53:19.343Z,41.41
2023-03-17T00:57:19.378Z,41.66
2023-03-17T01:01:19.342Z,41.93
2023-03-17T01:05:19.250Z,42.14
2023-03-17T01:09:19.281Z,42.42
2023-03-17T01:13:19.267Z,42.58
2023-03-17T01:17:19.112Z,43.07
2023-03-17T01:21:19.230Z,43.37
2023-03-17T01:25:19.063Z,43.53
2023-03-17T01:29:19.144Z,43.96
2023-03-17T01:33:19.024Z,43.10
2023-03-17T01:37:19.006Z,42.58
2023-03-17T01:41:18.970Z,42.18
2023-03-17T01:45:18.990Z,42.12
2023-03-17T01:49:18.888Z,42.13
2023-03-17T01:53:18.844Z,42.22
2023-03-17T01:57:18.783Z,41.86
2023-03-17T02:01:18.819Z,41.83
2023-03-17T02:05:18.766Z,42.27
2023-03-17T02:09:18.697Z,42.50
2023-03-17T02:13:18.647Z,43.12
2023-03-17T02:17:18.610Z,43.21
2023-03-17T02:21:18.666Z,42.79
2023-03-17T02:28:58.464Z,43.11
2023-03-17T02:32:58.458Z,44.09
2023-03-17T02:36:58.439Z,42.88
2023-03-17T02:40:58.353Z,42.31
2023-03-17T02:44:58.297Z,42.41
2023-03-17T02:48:58.281Z,43.15
2023-03-17T02:52:58.217Z,44.05
2023-03-17T02:56:58.211Z,44.03
2023-03-17T03:00:58.173Z,43.65
2023-03-17T03:04:58.127Z,44.02
2023-03-17T03:08:58.090Z,43.59
2023-03-17T03:12:58.072Z,43.93
2023-03-17T03:16:58.013Z,44.10
2023-03-17T03:20:58.102Z,44.93
2023-03-17T03:24:57.981Z,44.38
2023-03-17T03:28:57.921Z,44.15
2023-03-17T03:32:58.067Z,43.44
2023-03-17T03:36:57.907Z,43.35
2023-03-17T03:40:57.965Z,43.46
2023-03-17T03:44:58.098Z,43.42
2023-03-17T03:48:58.207Z,44.13
2023-03-17T03:52:58.314Z,44.66
2023-03-17T03:56:58.499Z,44.07
2023-03-17T04:00:58.672Z,45.03
2023-03-17T04:04:58.828Z,45.35
2023-03-17T04:08:58.916Z,45.38
2023-03-17T04:12:59.085Z,45.41
2023-03-17T04:16:59.034Z,45.25
2023-03-17T04:20:59.017Z,44.66
2023-03-17T04:24:58.984Z,44.43
2023-03-17T04:28:58.941Z,45.19
2023-03-17T04:32:58.984Z,44.68
2023-03-17T04:36:59.178Z,44.52
2023-03-17T04:40:58.894Z,44.38
2023-03-17T04:44:58.893Z,45.75
2023-03-17T04:48:58.728Z,45.07
2023-03-17T04:52:58.729Z,44.87
2023-03-17T04:56:58.682Z,44.33
2023-03-17T05:00:58.849Z,43.82
2023-03-17T05:04:58.998Z,43.91
2023-03-17T05:08:59.151Z,44.15
2023-03-17T05:12:59.317Z,44.04
2023-03-17T05:16:59.462Z,44.99
2023-03-17T05:20:59.571Z,44.36
2023-03-17T05:24:59.693Z,44.38
2023-03-17T05:28:59.930Z,44.58
2023-03-17T05:32:59.930Z,44.28
2023-03-17T05:36:59.830Z,43.82
2023-03-17T05:40:59.820Z,43.82
2023-03-17T05:44:59.791Z,44.98
2023-03-17T05:48:59.750Z,44.86
2023-03-17T05:52:59.684Z,45.04
2023-03-17T05:56:59.676Z,44.86
2023-03-17T06:00:59.647Z,44.48
2023-03-17T06:04:59.611Z,45.02
2023-03-17T06:08:59.673Z,44.08
2023-03-17T06:12:59.521Z,44.56
2023-03-17T06:16:59.607Z,44.44
2023-03-17T06:20:59.696Z,44.63
2023-03-17T06:24:59.704Z,43.49
2023-03-17T06:28:59.756Z,43.49
2023-03-17T06:32:59.782Z,43.83
2023-03-17T06:36:59.962Z,43.39
2023-03-17T06:40:59.893Z,43.37
2023-03-17T06:44:59.987Z,43.27
2023-03-17T06:49:00.067Z,43.33
2023-03-17T06:53:00.114Z,42.80
2023-03-17T06:57:00.094Z,42.79
2023-03-17T07:01:00.099Z,42.36
2023-03-17T07:05:00.380Z,42.08
2023-03-17T07:09:02.171Z,42.42
2023-03-17T07:13:00.265Z,42.80
2023-03-17T07:17:00.313Z,43.64
2023-03-17T07:21:00.701Z,43.25
2023-03-17T07:25:00.725Z,42.54
2023-03-17T07:29:00.882Z,42.05
2023-03-17T07:33:00.923Z,42.89
2023-03-17T07:37:01.096Z,43.56
2023-03-17T07:41:00.965Z,42.77
2023-03-17T07:45:00.976Z,42.58
2023-03-17T07:49:01.158Z,43.18
2023-03-17T07:53:01.102Z,42.91
2023-03-17T07:57:01.263Z,42.51
2023-03-17T08:01:01.228Z,42.35
2023-03-17T08:05:01.104Z,41.85
2023-03-17T08:09:01.235Z,42.54
2023-03-17T08:13:01.338Z,41.70
2023-03-17T08:17:01.312Z,41.24
2023-03-17T08:21:01.269Z,40.38
2023-03-17T08:25:01.257Z,40.26
2023-03-17T08:29:01.186Z,40.90
2023-03-17T08:33:01.234Z,40.44
2023-03-17T08:37:01.074Z,39.40
2023-03-17T08:41:01.099Z,39.78
2023-03-17T08:45:01.013Z,38.97
2023-03-17T08:49:01.023Z,38.67
2023-03-17T08:53:00.977Z,38.17
2023-03-17T08:57:00.914Z,37.93
2023-03-17T09:01:00.890Z,38.50
2023-03-17T09:05:00.864Z,36.97
2023-03-17T09:09:00.808Z,35.76
2023-03-17T09:13:00.827Z,35.71
2023-03-17T09:17:01.032Z,35.36
2023-03-17T09:21:01.183Z,36.08
2023-03-17T09:25:01.062Z,35.10
2023-03-17T09:29:03.739Z,35.34
2023-03-17T09:33:01.196Z,35.24
2023-03-17T09:37:01.082Z,34.48
2023-03-17T09:41:01.043Z,34.52
2023-03-17T09:45:01.015Z,34.96
2023-03-17T09:49:01.000Z,34.27
2023-03-17T09:53:03.726Z,34.00
2023-03-17T09:57:00.892Z,33.90
2023-03-17T10:01:00.832Z,34.50
2023-03-17T10:05:00.884Z,34.01
2023-03-17T10:09:00.969Z,33.01
2023-03-17T10:13:00.832Z,31.96
2023-03-17T10:17:00.723Z,32.82
2023-03-17T10:21:00.739Z,33.58
2023-03-17T10:25:03.151Z,32.18
2023-03-17T10:29:00.793Z,31.49
2023-03-17T10:33:00.630Z,31.18
2023-03-17T10:37:00.593Z,30.74
2023-03-17T10:41:00.570Z,30.38
2023-03-17T10:45:00.490Z,29.95
2023-03-17T10:49:00.486Z,29.74
2023-03-17T10:53:00.459Z,29.08
2023-03-17T10:57:00.374Z,28.03
2023-03-17T11:01:00.470Z,28.64
2023-03-17T11:05:00.316Z,28.41
2023-03-17T11:09:00.314Z,26.57
2023-03-17T11:13:00.244Z,27.62
2023-03-17T11:17:00.267Z,26.93
2023-03-17T11:21:00.179Z,26.81
2023-03-17T11:25:00.219Z,27.18
2023-03-17T11:29:00.227Z,26.43
2023-03-17T11:33:00.392Z,27.26
2023-03-17T11:37:00.392Z,26.97
2023-03-17T11:41:00.518Z,26.55
2023-03-17T11:45:00.742Z,26.27
2023-03-17T11:49:00.962Z,26.38
2023-03-17T11:53:01.038Z,25.16
2023-03-17T11:57:01.218Z,23.59
2023-03-17T12:01:01.264Z,25.26
2023-03-17T12:05:01.339Z,26.14
2023-03-17T12:09:01.377Z,25.06
2023-03-17T12:13:01.407Z,24.32
2023-03-17T12:17:01.625Z,23.97
2023-03-17T12:21:01.816Z,25.39
2023-03-17T12:25:01.952Z,24.99
2023-03-17T12:29:02.208Z,24.70
2023-03-17T12:33:02.120Z,26.06
2023-03-17T12:37:02.368Z,24.75
2023-03-17T12:41:02.413Z,25.31
2023-03-17T12:45:02.672Z,25.27
2023-03-17T12:49:02.808Z,25.75
2023-03-17T12:53:02.931Z,25.51
2023-03-17T12:57:02.957Z,23.57
2023-03-17T13:01:02.861Z,24.58
2023-03-17T13:05:02.834Z,24.49
2023-03-17T13:09:02.930Z,23.30
2023-03-17T13:13:02.803Z,23.33
2023-03-17T13:17:02.678Z,22.77
2023-03-17T13:21:02.683Z,22.08
2023-03-17T13:25:02.690Z,21.62
2023-03-17T13:29:02.628Z,21.66
2023-03-17T13:33:02.648Z,22.00
2023-03-17T13:37:02.614Z,21.63
2023-03-17T13:41:02.610Z,21.37
2023-03-17T13:45:02.691Z,20.92
2023-03-17T13:49:02.886Z,20.79
2023-03-17T13:53:03.106Z,20.73
2023-03-17T13:57:03.179Z,20.80
2023-03-17T14:01:14.425Z,20.88
2023-03-17T14:05:03.301Z,20.60
2023-03-17T14:09:03.269Z,20.70
2023-03-17T14:13:03.196Z,20.74
2023-03-17T14:17:03.367Z,20.54
2023-03-17T14:21:04.684Z,20.87
2023-03-17T14:25:03.443Z,20.80
2023-03-17T14:29:03.436Z,20.70
2023-03-17T14:33:03.394Z,20.94
2023-03-17T14:37:03.267Z,20.82
2023-03-17T14:41:03.248Z,20.77
2023-03-17T14:45:03.217Z,20.84
2023-03-17T14:49:03.176Z,21.04
2023-03-17T14:53:03.187Z,21.01
2023-03-17T14:57:03.247Z,20.90
2023-03-17T15:01:03.110Z,21.27
2023-03-17T15:05:02.973Z,21.04
2023-03-17T15:09:03.173Z,20.63
2023-03-17T15:13:03.122Z,21.12
2023-03-17T15:17:03.044Z,20.95
2023-03-17T15:21:02.904Z,21.17
2023-03-17T15:25:02.891Z,20.93
2023-03-17T15:29:02.852Z,21.08
2023-03-17T15:33:03.024Z,21.42
2023-03-17T15:37:03.082Z,21.32
2023-03-17T15:41:03.191Z,21.67
2023-03-17T15:45:03.244Z,22.08
2023-03-17T15:49:03.290Z,22.05
2023-03-17T15:53:03.412Z,21.76
2023-03-17T15:57:03.529Z,22.21
2023-03-17T16:01:03.648Z,22.51
2023-03-17T16:05:03.752Z,22.41
2023-03-17T16:09:04.006Z,22.19
2023-03-17T16:13:03.997Z,22.43
2023-03-17T16:17:04.230Z,22.44
2023-03-17T16:21:04.100Z,22.74
2023-03-17T16:25:04.304Z,22.40
2023-03-17T16:29:06.215Z,22.74
2023-03-17T16:33:04.618Z,22.97
2023-03-17T16:37:04.569Z,23.22
2023-03-17T16:41:04.315Z,22.92
2023-03-17T16:45:04.289Z,22.67
2023-03-17T16:49:04.319Z,22.71
2023-03-17T16:53:04.244Z,22.94
2023-03-17T16:57:06.052Z,22.97
2023-03-17T17:01:04.144Z,23.19
2023-03-17T17:05:04.164Z,23.32
2023-03-17T17:09:04.102Z,23.30
2023-03-17T17:13:05.914Z,23.35
2023-03-17T17:17:03.975Z,23.58
2023-03-17T17:21:03.978Z,23.81
2023-03-17T17:25:03.936Z,23.80
2023-03-17T17:29:03.916Z,23.64
2023-03-17T17:33:03.841Z,23.90
2023-03-17T17:37:03.822Z,23.79
2023-03-17T17:41:03.747Z,23.92
2023-03-17T17:45:03.756Z,23.92
2023-03-17T17:49:03.696Z,24.07
2023-03-17T17:53:03.671Z,24.15
2023-03-17T17:57:03.747Z,24.38
2023-03-17T18:01:03.673Z,24.62
2023-03-17T18:05:03.743Z,24.72
2023-03-17T18:09:03.860Z,24.57
2023-03-17T18:13:03.961Z,24.55
2023-03-17T18:17:04.142Z,25.05
2023-03-17T18:21:04.328Z,24.73
2023-03-17T18:25:04.465Z,24.79
2023-03-17T18:29:04.703Z,24.79
2023-03-17T18:33:04.763Z,25.00
2023-03-17T18:37:04.628Z,24.84
2023-03-17T18:41:04.615Z,25.22
2023-03-17T18:45:04.540Z,24.95
2023-03-17T18:49:04.454Z,25.08
2023-03-17T18:53:04.521Z,25.02
2023-03-17T18:57:04.405Z,25.44
2023-03-17T19:01:04.462Z,25.80
2023-03-17T19:05:04.353Z,25.38
2023-03-17T19:09:04.290Z,25.14
2023-03-17T19:13:04.241Z,25.65
2023-03-17T19:17:04.240Z,25.73
2023-03-17T19:21:04.200Z,25.56
2023-03-17T19:25:04.121Z,25.63
2023-03-17T19:29:04.104Z,26.04
2023-03-17T19:33:04.213Z,26.13
2023-03-17T19:37:04.045Z,26.08
2023-03-17T19:41:03.993Z,25.87
2023-03-17T19:45:03.979Z,26.29
2023-03-17T19:49:04.075Z,26.26
2023-03-17T19:53:04.228Z,26.61
2023-03-17T19:57:04.290Z,26.31
2023-03-17T20:01:04.358Z,26.50
2023-03-17T20:13:53.715Z,27.44
2023-03-17T20:17:43.503Z,28.87
2023-03-17T20:21:43.364Z,28.42
2023-03-17T20:25:43.372Z,29.17
2023-03-17T20:29:43.294Z,30.89
2023-03-17T20:33:43.299Z,31.15
2023-03-17T20:37:43.251Z,32.11
2023-03-17T20:41:43.274Z,33.13
2023-03-17T20:45:43.302Z,34.01
2023-03-17T20:49:43.483Z,33.36
2023-03-17T20:53:43.526Z,34.05
2023-03-17T20:57:43.469Z,34.18
2023-03-17T21:01:43.516Z,33.76
2023-03-17T21:05:43.371Z,34.65
2023-03-17T21:09:43.371Z,33.61
2023-03-17T21:13:43.350Z,34.81
2023-03-17T21:17:43.270Z,34.88
2023-03-17T21:21:43.290Z,35.11
2023-03-17T21:25:43.208Z,35.08
2023-03-17T21:29:43.136Z,35.02
2023-03-17T21:33:43.092Z,34.95
2023-03-17T21:37:43.228Z,35.90
2023-03-17T21:41:42.995Z,36.05
2023-03-17T21:45:43.037Z,35.86
2023-03-17T21:49:42.984Z,36.37
2023-03-17T21:53:42.881Z,35.76
2023-03-17T21:57:42.853Z,35.50
2023-03-17T22:01:43.130Z,35.69
2023-03-17T22:05:42.997Z,35.77
2023-03-17T22:09:42.978Z,36.16
2023-03-17T22:13:43.059Z,36.19
2023-03-17T22:17:43.050Z,35.62
2023-03-17T22:21:42.897Z,35.49
2023-03-17T22:25:42.997Z,35.93
2023-03-17T22:29:43.015Z,36.04
2023-03-17T22:33:42.809Z,36.01
2023-03-17T22:37:42.728Z,35.87
2023-03-17T22:41:42.712Z,35.86
2023-03-17T22:45:42.734Z,35.73
2023-03-17T22:49:42.645Z,35.80
2023-03-17T22:53:42.617Z,36.23
2023-03-17T22:57:42.564Z,36.44
2023-03-17T23:01:42.533Z,37.05
2023-03-17T23:05:42.480Z,37.14
2023-03-17T23:09:42.550Z,37.51
2023-03-17T23:13:42.780Z,37.57
2023-03-17T23:17:42.695Z,37.21
2023-03-17T23:21:42.688Z,36.93
2023-03-17T23:25:42.639Z,37.15
2023-03-17T23:29:42.607Z,37.22
2023-03-17T23:33:42.570Z,37.29
2023-03-17T23:37:42.574Z,37.67
2023-03-17T23:41:42.443Z,37.82
2023-03-17T23:45:42.542Z,38.85
2023-03-17T23:49:42.477Z,38.42
2023-03-17T23:53:42.398Z,38.06
2023-03-17T23:57:42.337Z,37.63
